createdAt,value
2022-12-27T00:00:23.396Z,9.60
2022-12-27T00:01:27.679Z,9.60
2022-12-27T00:02:29.481Z,9.50
2022-12-27T00:03:31.225Z,9.60
2022-12-27T00:04:32.903Z,9.60
2022-12-27T00:05:35.625Z,9.50
2022-12-27T00:06:40.088Z,9.50
2022-12-27T00:07:45.085Z,9.50
2022-12-27T00:08:47.432Z,9.50
2022-12-27T00:09:49.299Z,9.50
2022-12-27T00:10:51.296Z,9.50
2022-12-27T00:11:58.015Z,9.50
2022-12-27T00:13:01.564Z,9.50
2022-12-27T00:14:07.648Z,9.40
2022-12-27T00:15:10.620Z,9.40
2022-12-27T00:16:15.302Z,9.30
2022-12-27T00:17:17.148Z,9.30
2022-12-27T00:18:18.943Z,9.30
2022-12-27T00:19:21.074Z,9.30
2022-12-27T00:20:29.209Z,9.20
2022-12-27T00:21:31.218Z,9.20
2022-12-27T00:22:33.031Z,9.20
2022-12-27T00:23:38.759Z,9.20
2022-12-27T00:24:41.000Z,9.20
2022-12-27T00:25:42.711Z,9.20
2022-12-27T00:26:44.424Z,9.20
2022-12-27T00:27:46.313Z,9.20
2022-12-27T00:28:48.484Z,9.20
2022-12-27T00:29:50.188Z,9.20
2022-12-27T00:30:55.516Z,9.20
2022-12-27T00:31:57.838Z,9.20
2022-12-27T00:32:59.709Z,9.30
2022-12-27T00:34:03.184Z,9.30
2022-12-27T00:35:05.316Z,9.20
2022-12-27T00:36:09.419Z,9.30
2022-12-27T00:37:11.057Z,9.20
2022-12-27T00:38:12.704Z,9.20
2022-12-27T00:39:15.543Z,9.20
2022-12-27T00:40:17.236Z,9.20
2022-12-27T00:41:19.916Z,9.20
2022-12-27T00:42:21.594Z,9.20
2022-12-27T00:43:23.768Z,9.20
2022-12-27T00:44:25.491Z,9.10
2022-12-27T00:45:28.175Z,9.10
2022-12-27T00:46:30.018Z,9.10
2022-12-27T00:47:31.698Z,9.10
2022-12-27T00:48:33.949Z,9.10
2022-12-27T00:49:36.809Z,9.00
2022-12-27T00:50:42.642Z,9.00
2022-12-27T00:51:44.348Z,9.00
2022-12-27T00:52:45.973Z,9.00
2022-12-27T00:53:48.261Z,9.00
2022-12-27T00:54:50.096Z,9.00
2022-12-27T00:55:53.230Z,8.90
2022-12-27T00:56:54.891Z,8.90
2022-12-27T00:57:57.617Z,8.90
2022-12-27T00:59:02.489Z,8.90
2022-12-27T01:00:10.355Z,8.90
2022-12-27T01:01:18.630Z,8.90
2022-12-27T01:02:20.630Z,8.90
2022-12-27T01:03:22.419Z,8.90
2022-12-27T01:04:24.268Z,8.90
2022-12-27T01:05:26.126Z,8.80
2022-12-27T01:06:29.796Z,8.90
2022-12-27T01:07:31.513Z,8.90
2022-12-27T01:08:33.492Z,8.80
2022-12-27T01:09:35.300Z,8.90
2022-12-27T01:10:39.859Z,8.90
2022-12-27T01:11:41.781Z,8.90
2022-12-27T01:12:45.084Z,8.90
2022-12-27T01:13:47.131Z,8.90
2022-12-27T01:14:48.771Z,8.90
2022-12-27T01:15:50.453Z,8.90
2022-12-27T01:16:52.076Z,9.00
2022-12-27T01:17:53.754Z,9.00
2022-12-27T01:18:56.257Z,9.00
2022-12-27T01:19:57.949Z,9.00
2022-12-27T01:21:04.155Z,8.90
2022-12-27T01:22:07.094Z,8.90
2022-12-27T01:23:08.853Z,9.00
2022-12-27T01:24:10.567Z,9.00
2022-12-27T01:25:12.229Z,9.00
2022-12-27T01:26:20.112Z,8.90
2022-12-27T01:27:22.099Z,8.90
2022-12-27T01:28:23.906Z,8.90
2022-12-27T01:29:25.745Z,8.90
2022-12-27T01:30:27.483Z,8.80
2022-12-27T01:31:29.602Z,8.80
2022-12-27T01:32:35.959Z,8.80
2022-12-27T01:33:38.607Z,8.80
2022-12-27T01:34:40.539Z,8.80
2022-12-27T01:35:42.209Z,8.80
2022-12-27T01:36:44.440Z,8.80
2022-12-27T01:37:46.081Z,8.80
2022-12-27T01:38:48.783Z,8.80
2022-12-27T01:39:50.547Z,8.80
2022-12-27T01:40:52.196Z,8.80
2022-12-27T01:42:12.755Z,8.80
2022-12-27T01:43:19.217Z,8.90
2022-12-27T01:45:05.323Z,8.90
2022-12-27T01:46:07.371Z,8.90
2022-12-27T01:47:22.468Z,8.90
2022-12-27T01:48:25.189Z,8.90
2022-12-27T01:49:27.015Z,8.90
2022-12-27T01:50:36.298Z,8.90
2022-12-27T01:51:38.189Z,8.90
2022-12-27T01:52:59.387Z,8.90
2022-12-27T01:54:01.036Z,8.90
2022-12-27T01:55:29.526Z,8.90
2022-12-27T01:56:31.924Z,8.90
2022-12-27T01:57:34.413Z,8.90
2022-12-27T01:58:50.370Z,8.90
2022-12-27T01:59:52.239Z,8.90
2022-12-27T02:00:54.300Z,8.90
2022-12-27T02:01:56.157Z,8.90
2022-12-27T02:02:59.131Z,8.80
2022-12-27T02:04:04.695Z,8.90
2022-12-27T02:05:07.809Z,8.90
2022-12-27T02:06:12.376Z,8.90
2022-12-27T02:07:15.904Z,8.90
2022-12-27T02:08:35.772Z,8.90
2022-12-27T02:09:54.361Z,8.90
2022-12-27T02:10:58.799Z,8.90
2022-12-27T02:12:02.042Z,8.90
2022-12-27T02:13:05.785Z,8.80
2022-12-27T02:14:07.912Z,8.80
2022-12-27T02:15:09.881Z,8.80
2022-12-27T02:16:18.635Z,8.80
2022-12-27T02:17:26.829Z,8.80
2022-12-27T02:18:28.589Z,8.80
2022-12-27T02:19:56.974Z,8.80
2022-12-27T02:21:24.336Z,8.80
2022-12-27T02:23:19.933Z,8.80
2022-12-27T02:24:58.397Z,8.80
2022-12-27T02:26:42.956Z,8.80
2022-12-27T02:28:13.617Z,8.80
2022-12-27T02:29:36.789Z,8.80
2022-12-27T02:30:39.589Z,8.80
2022-12-27T02:31:59.549Z,8.80
2022-12-27T02:33:06.079Z,8.80
2022-12-27T02:34:18.009Z,8.80
2022-12-27T02:35:29.171Z,8.80
2022-12-27T02:36:35.469Z,8.60
2022-12-27T02:37:44.878Z,8.70
2022-12-27T02:38:51.911Z,8.70
2022-12-27T02:39:55.756Z,8.70
2022-12-27T02:41:20.139Z,8.60
2022-12-27T02:42:40.984Z,8.70
2022-12-27T02:44:01.560Z,8.70
2022-12-27T02:45:23.260Z,8.60
2022-12-27T02:46:47.039Z,8.60
2022-12-27T02:48:07.966Z,8.60
2022-12-27T02:49:42.105Z,8.60
2022-12-27T02:51:19.239Z,8.60
2022-12-27T02:53:04.135Z,8.70
2022-12-27T02:54:27.550Z,8.70
2022-12-27T02:55:34.720Z,8.70
2022-12-27T02:57:05.885Z,8.70
2022-12-27T02:58:13.304Z,8.70
2022-12-27T03:00:02.819Z,8.70
2022-12-27T03:02:01.464Z,8.70
2022-12-27T03:03:27.312Z,8.70
2022-12-27T03:04:41.469Z,8.70
2022-12-27T03:06:21.388Z,8.70
2022-12-27T03:08:04.416Z,8.70
2022-12-27T03:09:09.013Z,8.60
2022-12-27T03:10:43.336Z,8.60
2022-12-27T03:12:07.990Z,8.60
2022-12-27T03:13:40.324Z,8.60
2022-12-27T03:15:06.675Z,8.60
2022-12-27T03:16:11.648Z,8.60
2022-12-27T03:17:25.384Z,8.60
2022-12-27T03:18:44.785Z,8.60
2022-12-27T03:20:13.486Z,8.60
2022-12-27T03:21:47.393Z,8.60
2022-12-27T03:23:10.738Z,8.30
2022-12-27T03:24:33.027Z,8.60
2022-12-27T03:25:37.427Z,8.60
2022-12-27T03:26:43.924Z,8.30
2022-12-27T03:28:08.760Z,8.60
2022-12-27T03:29:30.036Z,8.60
2022-12-27T03:30:52.672Z,8.60
2022-12-27T03:32:16.563Z,8.60
2022-12-27T03:33:19.001Z,8.50
2022-12-27T03:34:35.750Z,8.50
2022-12-27T03:36:21.306Z,8.50
2022-12-27T03:37:50.462Z,8.50
2022-12-27T03:39:24.341Z,8.50
2022-12-27T03:40:35.475Z,8.40
2022-12-27T03:42:03.068Z,8.40
2022-12-27T03:43:14.255Z,8.40
2022-12-27T03:44:27.191Z,8.40
2022-12-27T03:46:01.987Z,8.40
2022-12-27T03:47:24.724Z,8.40
2022-12-27T03:48:31.140Z,8.30
2022-12-27T03:49:45.754Z,8.30
2022-12-27T03:50:54.804Z,8.30
2022-12-27T03:52:22.904Z,8.30
2022-12-27T03:53:38.146Z,8.30
2022-12-27T03:54:42.141Z,8.30
2022-12-27T03:55:44.039Z,8.30
2022-12-27T03:56:45.966Z,8.30
2022-12-27T03:57:48.126Z,8.30
2022-12-27T03:58:53.133Z,8.30
2022-12-27T03:59:55.223Z,8.30
2022-12-27T04:00:57.149Z,8.40
2022-12-27T04:02:00.454Z,8.40
2022-12-27T04:03:02.278Z,8.30
2022-12-27T04:04:04.285Z,8.40
2022-12-27T04:05:06.395Z,8.40
2022-12-27T04:06:08.270Z,8.40
2022-12-27T04:07:12.917Z,8.40
2022-12-27T04:08:33.325Z,8.40
2022-12-27T04:09:54.084Z,8.40
2022-12-27T04:11:14.677Z,8.40
2022-12-27T04:12:35.354Z,8.50
2022-12-27T04:13:55.827Z,8.50
2022-12-27T04:15:16.398Z,8.40
2022-12-27T04:16:36.739Z,8.40
2022-12-27T04:17:57.085Z,8.40
2022-12-27T04:19:17.460Z,8.40
2022-12-27T04:20:41.162Z,8.40
2022-12-27T04:22:01.320Z,8.30
2022-12-27T04:23:21.960Z,8.20
2022-12-27T04:24:42.500Z,8.30
2022-12-27T04:26:02.909Z,8.20
2022-12-27T04:27:23.536Z,8.30
2022-12-27T04:28:44.109Z,8.20
2022-12-27T04:30:04.752Z,8.20
2022-12-27T04:31:25.008Z,8.20
2022-12-27T04:32:46.135Z,8.20
2022-12-27T04:34:06.311Z,8.20
2022-12-27T04:35:09.427Z,8.20
2022-12-27T04:36:11.227Z,8.20
2022-12-27T04:37:15.865Z,8.20
2022-12-27T04:38:17.554Z,8.20
2022-12-27T04:39:19.372Z,8.20
2022-12-27T04:40:39.685Z,8.20
2022-12-27T04:42:00.083Z,8.20
2022-12-27T04:43:20.725Z,8.10
2022-12-27T04:44:41.541Z,8.10
2022-12-27T04:46:01.600Z,8.10
2022-12-27T04:47:22.191Z,8.00
2022-12-27T04:48:43.685Z,8.00
2022-12-27T04:50:04.212Z,8.00
2022-12-27T04:51:24.727Z,7.90
2022-12-27T04:52:45.207Z,7.90
2022-12-27T04:54:05.613Z,7.90
2022-12-27T04:55:23.403Z,7.90
2022-12-27T04:56:25.138Z,7.90
2022-12-27T04:57:28.380Z,7.90
2022-12-27T04:58:30.483Z,7.90
2022-12-27T04:59:50.993Z,7.90
2022-12-27T05:01:14.439Z,7.90
2022-12-27T05:02:18.165Z,7.90
2022-12-27T05:03:23.721Z,7.90
2022-12-27T05:04:26.166Z,7.90
2022-12-27T05:05:28.389Z,7.90
2022-12-27T05:06:30.223Z,7.90
2022-12-27T05:07:52.136Z,7.80
2022-12-27T05:09:12.693Z,7.80
2022-12-27T05:10:34.093Z,7.70
2022-12-27T05:11:54.887Z,7.70
2022-12-27T05:13:15.334Z,7.70
2022-12-27T05:14:17.068Z,7.70
2022-12-27T05:15:18.763Z,7.70
2022-12-27T05:16:20.742Z,7.70
2022-12-27T05:17:22.614Z,7.70
2022-12-27T05:18:24.463Z,7.70
2022-12-27T05:19:26.382Z,7.80
2022-12-27T05:20:28.051Z,7.80
2022-12-27T05:21:29.705Z,7.80
2022-12-27T05:22:50.208Z,7.90
2022-12-27T05:24:10.896Z,7.90
2022-12-27T05:25:31.165Z,7.90
2022-12-27T05:26:34.024Z,7.90
2022-12-27T05:27:35.865Z,7.90
2022-12-27T05:28:38.257Z,7.90
2022-12-27T05:29:39.920Z,7.90
2022-12-27T05:30:43.683Z,8.00
2022-12-27T05:31:45.334Z,8.00
2022-12-27T05:32:47.006Z,7.90
2022-12-27T05:33:49.429Z,8.00
2022-12-27T05:34:51.167Z,7.90
2022-12-27T05:35:52.874Z,7.90
2022-12-27T05:36:54.644Z,8.00
2022-12-27T05:37:56.669Z,8.00
2022-12-27T05:38:59.148Z,8.00
2022-12-27T05:40:00.820Z,8.00
2022-12-27T05:41:03.525Z,8.00
2022-12-27T05:42:05.296Z,8.00
2022-12-27T05:43:07.106Z,8.00
2022-12-27T05:44:08.905Z,8.00
2022-12-27T05:45:11.110Z,8.00
2022-12-27T05:46:15.291Z,8.00
2022-12-27T05:47:17.031Z,8.00
2022-12-27T05:48:18.707Z,8.10
2022-12-27T05:49:20.710Z,8.10
2022-12-27T05:50:23.063Z,8.10
2022-12-27T05:51:24.946Z,8.10
2022-12-27T05:52:26.664Z,8.00
2022-12-27T05:53:28.326Z,8.00
2022-12-27T05:54:30.079Z,7.90
2022-12-27T05:55:31.788Z,8.10
2022-12-27T05:56:37.236Z,8.10
2022-12-27T05:57:39.186Z,8.10
2022-12-27T05:58:40.953Z,8.00
2022-12-27T05:59:42.599Z,8.10
2022-12-27T06:00:44.389Z,8.00
2022-12-27T06:01:46.607Z,8.00
2022-12-27T06:02:48.482Z,8.00
2022-12-27T06:03:50.184Z,8.00
2022-12-27T06:04:51.849Z,7.90
2022-12-27T06:06:00.812Z,7.90
2022-12-27T06:07:04.277Z,7.90
2022-12-27T06:08:06.449Z,7.80
2022-12-27T06:09:08.444Z,7.80
2022-12-27T06:10:11.830Z,7.80
2022-12-27T06:11:17.234Z,7.70
2022-12-27T06:12:19.012Z,7.70
2022-12-27T06:13:20.984Z,7.70
2022-12-27T06:14:22.926Z,7.70
2022-12-27T06:15:25.807Z,7.60
2022-12-27T06:16:27.612Z,7.60
2022-12-27T06:17:30.515Z,7.60
2022-12-27T06:18:36.518Z,7.60
2022-12-27T06:19:38.620Z,7.60
2022-12-27T06:20:40.490Z,7.50
2022-12-27T06:21:44.687Z,7.60
2022-12-27T06:22:46.406Z,7.30
2022-12-27T06:23:48.856Z,7.50
2022-12-27T06:24:50.651Z,7.50
2022-12-27T06:25:52.307Z,7.60
2022-12-27T06:26:54.920Z,7.60
2022-12-27T06:27:56.671Z,7.70
2022-12-27T06:28:58.924Z,7.60
2022-12-27T06:30:00.645Z,7.60
2022-12-27T06:31:03.003Z,7.60
2022-12-27T06:32:04.936Z,7.60
2022-12-27T06:33:06.891Z,7.80
2022-12-27T06:34:11.193Z,7.60
2022-12-27T06:35:12.975Z,7.60
2022-12-27T06:36:19.389Z,7.60
2022-12-27T06:37:21.105Z,7.60
2022-12-27T06:38:23.703Z,7.60
2022-12-27T06:39:25.815Z,7.60
2022-12-27T06:40:27.864Z,7.60
2022-12-27T06:41:29.960Z,7.60
2022-12-27T06:42:31.749Z,7.80
2022-12-27T06:43:34.000Z,7.60
2022-12-27T06:44:36.064Z,7.60
2022-12-27T06:45:39.049Z,7.60
2022-12-27T06:46:42.461Z,7.60
2022-12-27T06:47:44.215Z,7.60
2022-12-27T06:48:47.418Z,7.60
2022-12-27T06:49:49.216Z,7.50
2022-12-27T06:50:51.193Z,7.40
2022-12-27T06:51:59.360Z,7.40
2022-12-27T06:53:01.493Z,7.40
2022-12-27T06:54:03.282Z,7.40
2022-12-27T06:55:05.217Z,7.40
2022-12-27T06:56:17.120Z,7.40
2022-12-27T06:57:18.991Z,7.30
2022-12-27T06:58:20.813Z,7.30
2022-12-27T06:59:23.514Z,7.20
2022-12-27T07:00:25.253Z,7.20
2022-12-27T07:01:28.455Z,7.10
2022-12-27T07:02:30.311Z,7.10
2022-12-27T07:03:32.075Z,7.10
2022-12-27T07:04:34.256Z,7.10
2022-12-27T07:05:36.871Z,7.00
2022-12-27T07:06:39.213Z,7.10
2022-12-27T07:07:40.933Z,7.10
2022-12-27T07:08:42.962Z,7.10
2022-12-27T07:09:45.113Z,7.10
2022-12-27T07:10:48.242Z,7.00
2022-12-27T07:11:49.989Z,7.10
2022-12-27T07:12:51.710Z,7.00
2022-12-27T07:13:55.580Z,7.10
2022-12-27T07:14:57.447Z,7.10
2022-12-27T07:15:59.496Z,7.10
2022-12-27T07:17:03.608Z,7.00
2022-12-27T07:18:05.505Z,7.00
2022-12-27T07:19:07.168Z,7.00
2022-12-27T07:20:09.600Z,7.10
2022-12-27T07:21:14.271Z,7.10
2022-12-27T07:22:15.939Z,7.10
2022-12-27T07:23:19.562Z,7.10
2022-12-27T07:24:21.313Z,7.20
2022-12-27T07:25:23.037Z,7.20
2022-12-27T07:26:31.058Z,7.20
2022-12-27T07:27:38.049Z,7.20
2022-12-27T07:28:41.771Z,7.20
2022-12-27T07:29:45.697Z,7.20
2022-12-27T07:30:48.791Z,7.20
2022-12-27T07:31:50.520Z,7.20
2022-12-27T07:32:52.254Z,7.20
2022-12-27T07:33:54.056Z,7.20
2022-12-27T07:34:55.835Z,7.10
2022-12-27T07:35:59.584Z,7.10
2022-12-27T07:37:01.738Z,7.10
2022-12-27T07:38:03.721Z,7.00
2022-12-27T07:39:06.416Z,7.00
2022-12-27T07:40:08.852Z,7.10
2022-12-27T07:41:12.107Z,7.00
2022-12-27T07:42:14.196Z,7.00
2022-12-27T07:43:15.841Z,7.00
2022-12-27T07:44:17.849Z,6.90
2022-12-27T07:45:19.548Z,6.90
2022-12-27T07:46:23.818Z,6.90
2022-12-27T07:47:25.462Z,7.00
2022-12-27T07:48:28.854Z,6.90
2022-12-27T07:49:30.780Z,7.00
2022-12-27T07:50:32.767Z,6.90
2022-12-27T07:51:34.552Z,7.00
2022-12-27T07:52:36.237Z,7.00
2022-12-27T07:53:38.642Z,7.00
2022-12-27T07:54:40.341Z,6.90
2022-12-27T07:55:42.157Z,6.90
2022-12-27T07:56:44.045Z,7.10
2022-12-27T07:57:45.737Z,6.90
2022-12-27T07:58:49.234Z,6.90
2022-12-27T07:59:50.945Z,6.90
2022-12-27T08:00:53.351Z,6.90
2022-12-27T08:02:04.501Z,7.00
2022-12-27T08:03:07.867Z,7.00
2022-12-27T08:04:09.897Z,7.00
2022-12-27T08:05:12.665Z,7.00
2022-12-27T08:06:22.893Z,7.00
2022-12-27T08:07:25.596Z,7.00
2022-12-27T08:08:32.722Z,7.00
2022-12-27T08:09:37.948Z,7.00
2022-12-27T08:10:39.791Z,7.00
2022-12-27T08:11:41.514Z,7.00
2022-12-27T08:12:43.368Z,7.00
2022-12-27T08:13:45.393Z,7.20
2022-12-27T08:14:48.595Z,7.10
2022-12-27T08:15:52.786Z,7.10
2022-12-27T08:17:21.842Z,7.20
2022-12-27T08:18:23.738Z,7.20
2022-12-27T08:19:25.527Z,7.20
2022-12-27T08:20:27.848Z,7.20
2022-12-27T08:21:29.958Z,7.20
2022-12-27T08:22:31.720Z,7.20
2022-12-27T08:23:33.530Z,7.20
2022-12-27T08:24:36.764Z,7.20
2022-12-27T08:25:42.018Z,7.20
2022-12-27T08:26:46.607Z,7.30
2022-12-27T08:27:48.311Z,7.30
2022-12-27T08:28:50.380Z,7.30
2022-12-27T08:29:52.183Z,7.40
2022-12-27T08:30:54.296Z,7.40
2022-12-27T08:31:56.254Z,7.40
2022-12-27T08:32:58.215Z,7.50
2022-12-27T08:34:01.096Z,7.60
2022-12-27T08:35:25.048Z,7.60
2022-12-27T08:36:54.168Z,7.60
2022-12-27T08:37:47.930Z,7.60
2022-12-27T08:38:49.654Z,7.70
2022-12-27T08:39:51.345Z,7.70
2022-12-27T08:40:53.095Z,7.70
2022-12-27T08:41:55.320Z,7.70
2022-12-27T08:42:57.095Z,7.70
2022-12-27T08:43:59.101Z,7.80
2022-12-27T08:45:00.935Z,7.80
2022-12-27T08:46:05.560Z,7.80
2022-12-27T08:47:07.421Z,7.80
2022-12-27T08:48:09.725Z,7.80
2022-12-27T08:49:11.692Z,7.80
2022-12-27T08:50:13.446Z,7.80
2022-12-27T08:51:20.812Z,7.90
2022-12-27T08:52:32.136Z,8.10
2022-12-27T08:53:34.328Z,7.80
2022-12-27T08:54:38.738Z,8.00
2022-12-27T08:55:40.752Z,7.80
2022-12-27T08:56:42.966Z,7.80
2022-12-27T08:57:45.352Z,7.80
2022-12-27T08:58:49.326Z,7.80
2022-12-27T08:59:51.003Z,7.80
2022-12-27T09:00:52.645Z,7.90
2022-12-27T09:01:54.578Z,7.80
2022-12-27T09:02:56.908Z,7.80
2022-12-27T09:04:00.138Z,7.90
2022-12-27T09:05:02.025Z,7.90
2022-12-27T09:06:18.014Z,7.80
2022-12-27T09:07:21.936Z,7.80
2022-12-27T09:08:23.648Z,7.60
2022-12-27T09:09:25.444Z,7.80
2022-12-27T09:10:27.483Z,7.70
2022-12-27T09:11:33.320Z,7.70
2022-12-27T09:12:35.498Z,7.70
2022-12-27T09:13:37.306Z,7.70
2022-12-27T09:14:38.974Z,7.70
2022-12-27T09:15:41.549Z,7.70
2022-12-27T09:16:45.811Z,7.70
2022-12-27T09:17:47.532Z,7.70
2022-12-27T09:18:51.683Z,7.70
2022-12-27T09:20:28.162Z,7.70
2022-12-27T09:21:32.377Z,7.80
2022-12-27T09:22:34.573Z,7.80
2022-12-27T09:23:38.552Z,7.80
2022-12-27T09:24:40.452Z,7.80
2022-12-27T09:25:42.705Z,7.80
2022-12-27T09:26:44.530Z,7.80
2022-12-27T09:27:46.637Z,7.80
2022-12-27T09:28:49.656Z,7.80
2022-12-27T09:29:52.308Z,7.80
2022-12-27T09:30:54.006Z,7.80
2022-12-27T09:31:55.879Z,7.90
2022-12-27T09:32:59.553Z,7.90
2022-12-27T09:34:01.843Z,7.80
2022-12-27T09:35:04.300Z,7.90
2022-12-27T09:36:09.555Z,7.90
2022-12-27T09:37:13.053Z,7.90
2022-12-27T09:38:14.714Z,7.90
2022-12-27T09:39:17.330Z,7.90
2022-12-27T09:40:26.299Z,8.10
2022-12-27T09:43:24.076Z,7.90
2022-12-27T09:44:43.128Z,7.80
2022-12-27T09:45:52.262Z,7.80
2022-12-27T09:46:54.132Z,7.80
2022-12-27T09:48:07.767Z,7.90
2022-12-27T09:49:13.505Z,7.90
2022-12-27T09:50:27.852Z,7.90
2022-12-27T09:51:35.869Z,7.90
2022-12-27T09:52:44.067Z,8.00
2022-12-27T09:54:13.096Z,8.00
2022-12-27T09:55:47.196Z,8.10
2022-12-27T09:57:21.033Z,8.20
2022-12-27T09:58:35.481Z,8.20
2022-12-27T09:59:44.466Z,8.30
2022-12-27T10:00:46.642Z,8.30
2022-12-27T10:01:49.164Z,8.30
2022-12-27T10:02:52.023Z,8.30
2022-12-27T10:03:54.363Z,8.40
2022-12-27T10:06:40.135Z,8.40
2022-12-27T10:07:41.903Z,8.40
2022-12-27T10:08:59.827Z,8.40
2022-12-27T10:10:20.623Z,8.40
2022-12-27T10:11:47.547Z,8.40
2022-12-27T10:13:23.434Z,8.50
2022-12-27T10:14:53.280Z,8.50
2022-12-27T10:16:11.140Z,8.60
2022-12-27T10:17:37.282Z,8.60
2022-12-27T10:18:56.961Z,8.60
2022-12-27T10:20:16.504Z,8.60
2022-12-27T10:21:27.232Z,8.60
2022-12-27T10:22:47.307Z,8.60
2022-12-27T10:24:16.062Z,8.60
2022-12-27T10:25:32.063Z,8.30
2022-12-27T10:26:34.269Z,8.60
2022-12-27T10:27:37.473Z,8.70
2022-12-27T10:28:45.049Z,8.70
2022-12-27T10:29:48.913Z,8.70
2022-12-27T10:30:53.111Z,8.70
2022-12-27T10:31:54.880Z,8.70
2022-12-27T10:32:59.367Z,8.70
2022-12-27T10:34:02.291Z,8.70
2022-12-27T10:35:07.573Z,8.80
2022-12-27T10:36:15.405Z,8.90
2022-12-27T10:37:17.201Z,8.90
2022-12-27T10:38:21.004Z,8.90
2022-12-27T10:39:30.837Z,8.90
2022-12-27T10:40:50.148Z,8.90
2022-12-27T10:41:58.067Z,9.00
2022-12-27T10:43:19.728Z,9.00
2022-12-27T10:44:23.314Z,9.10
2022-12-27T10:45:44.026Z,9.10
2022-12-27T10:46:53.338Z,9.20
2022-12-27T10:48:22.701Z,9.20
2022-12-27T10:49:32.944Z,9.20
2022-12-27T10:50:35.073Z,9.20
2022-12-27T10:51:42.440Z,9.20
2022-12-27T10:52:44.455Z,9.20
2022-12-27T10:53:47.599Z,9.20
2022-12-27T10:54:54.554Z,9.20
2022-12-27T10:56:33.147Z,9.20
2022-12-27T10:57:35.314Z,9.30
2022-12-27T10:58:46.679Z,9.30
2022-12-27T11:00:13.387Z,9.30
2022-12-27T11:01:19.826Z,9.30
2022-12-27T11:02:21.939Z,9.40
2022-12-27T11:03:26.194Z,9.40
2022-12-27T11:04:30.958Z,9.40
2022-12-27T11:05:36.157Z,9.40
2022-12-27T11:06:38.916Z,9.40
2022-12-27T11:07:40.979Z,9.40
2022-12-27T11:08:42.951Z,9.40
2022-12-27T11:09:50.787Z,9.40
2022-12-27T11:11:13.427Z,9.40
2022-12-27T11:12:20.549Z,9.40
2022-12-27T11:13:22.368Z,9.40
2022-12-27T11:14:24.017Z,9.40
2022-12-27T11:15:27.701Z,9.50
2022-12-27T11:16:32.238Z,9.40
2022-12-27T11:17:53.114Z,9.50
2022-12-27T11:18:57.905Z,9.50
2022-12-27T11:20:04.435Z,9.60
2022-12-27T11:21:06.921Z,9.60
2022-12-27T11:22:10.352Z,9.60
2022-12-27T11:23:16.831Z,9.70
2022-12-27T11:24:20.439Z,9.70
2022-12-27T11:25:23.375Z,9.70
2022-12-27T11:26:31.015Z,9.80
2022-12-27T11:27:33.200Z,9.80
2022-12-27T11:28:38.977Z,9.80
2022-12-27T11:29:45.720Z,9.80
2022-12-27T11:31:00.899Z,9.80
2022-12-27T11:32:09.175Z,9.80
2022-12-27T11:33:25.336Z,9.90
2022-12-27T11:34:33.669Z,9.90
2022-12-27T11:35:50.229Z,9.90
2022-12-27T11:36:55.329Z,9.90
2022-12-27T11:38:00.747Z,10.00
2022-12-27T11:39:03.523Z,10.00
2022-12-27T11:40:22.097Z,10.00
2022-12-27T11:41:34.786Z,10.00
2022-12-27T11:42:43.047Z,10.00
2022-12-27T11:44:01.613Z,10.00
2022-12-27T11:45:37.004Z,10.00
2022-12-27T11:46:45.215Z,10.00
2022-12-27T11:48:11.066Z,10.00
2022-12-27T11:49:29.090Z,10.00
2022-12-27T11:50:55.997Z,10.00
2022-12-27T11:52:38.812Z,10.00
2022-12-27T11:54:01.423Z,10.00
2022-12-27T11:55:27.164Z,10.00
2022-12-27T11:56:31.065Z,10.10
2022-12-27T11:57:54.290Z,10.00
2022-12-27T11:58:56.264Z,10.10
2022-12-27T12:00:40.071Z,10.10
2022-12-27T12:01:51.003Z,10.00
2022-12-27T12:03:18.415Z,10.10
2022-12-27T12:04:43.569Z,10.00
2022-12-27T12:05:58.715Z,10.00
2022-12-27T12:07:38.110Z,10.00
2022-12-27T12:09:04.044Z,10.00
2022-12-27T12:10:21.423Z,9.90
2022-12-27T12:11:54.426Z,9.90
2022-12-27T12:13:13.462Z,9.90
2022-12-27T12:14:33.406Z,9.80
2022-12-27T12:16:05.879Z,9.90
2022-12-27T12:17:31.094Z,9.90
2022-12-27T12:19:12.603Z,10.00
2022-12-27T12:20:45.647Z,10.00
2022-12-27T12:21:56.400Z,9.80
2022-12-27T12:23:28.444Z,10.10
2022-12-27T12:24:51.316Z,10.10
2022-12-27T12:26:18.006Z,10.20
2022-12-27T12:27:38.909Z,10.20
2022-12-27T12:29:00.268Z,10.20
2022-12-27T12:30:27.196Z,10.20
2022-12-27T12:32:06.853Z,10.10
2022-12-27T12:33:32.863Z,10.10
2022-12-27T12:34:53.124Z,10.20
2022-12-27T12:36:26.740Z,10.20
2022-12-27T12:37:59.347Z,10.20
2022-12-27T12:39:13.860Z,10.20
2022-12-27T12:41:08.189Z,10.20
2022-12-27T12:42:46.963Z,10.10
2022-12-27T12:43:52.992Z,10.10
2022-12-27T12:45:35.741Z,10.20
2022-12-27T12:47:09.235Z,10.20
2022-12-27T12:48:12.177Z,10.20
2022-12-27T12:49:35.885Z,10.20
2022-12-27T12:51:05.957Z,10.30
2022-12-27T12:52:19.671Z,10.40
2022-12-27T12:53:36.635Z,10.60
2022-12-27T12:55:12.703Z,10.40
2022-12-27T12:56:58.461Z,10.40
2022-12-27T12:58:21.712Z,10.40
2022-12-27T13:00:17.497Z,10.40
2022-12-27T13:01:37.767Z,10.40
2022-12-27T13:02:56.460Z,10.40
2022-12-27T13:04:27.379Z,10.40
2022-12-27T13:06:01.306Z,10.40
2022-12-27T13:07:06.502Z,10.40
2022-12-27T13:08:27.018Z,10.40
2022-12-27T13:09:40.754Z,10.40
2022-12-27T13:10:45.533Z,10.40
2022-12-27T13:12:09.313Z,10.50
2022-12-27T13:13:20.702Z,10.50
2022-12-27T13:14:28.302Z,10.50
2022-12-27T13:15:57.421Z,10.60
2022-12-27T13:17:04.523Z,10.60
2022-12-27T13:18:26.633Z,10.60
2022-12-27T13:19:55.955Z,10.70
2022-12-27T13:21:10.826Z,10.70
2022-12-27T13:22:36.044Z,10.80
2022-12-27T13:23:50.638Z,10.80
2022-12-27T13:24:58.935Z,10.80
2022-12-27T13:26:18.974Z,10.90
2022-12-27T13:27:39.947Z,10.90
2022-12-27T13:29:08.400Z,10.90
2022-12-27T13:30:16.213Z,10.90
2022-12-27T13:31:45.884Z,10.90
2022-12-27T13:33:02.315Z,10.90
2022-12-27T13:34:20.724Z,11.00
2022-12-27T13:35:40.975Z,11.10
2022-12-27T13:36:58.264Z,11.10
2022-12-27T13:38:21.144Z,11.10
2022-12-27T13:39:40.855Z,11.10
2022-12-27T13:41:04.248Z,11.10
2022-12-27T13:42:42.843Z,11.20
2022-12-27T13:44:06.258Z,11.20
2022-12-27T13:45:46.446Z,11.10
2022-12-27T13:47:22.731Z,11.10
2022-12-27T13:49:03.726Z,11.10
2022-12-27T13:50:21.080Z,11.10
2022-12-27T13:51:44.061Z,11.10
2022-12-27T13:53:10.895Z,11.20
2022-12-27T13:54:52.825Z,11.20
2022-12-27T13:59:03.492Z,11.20
2022-12-27T14:00:17.389Z,11.20
2022-12-27T14:01:28.032Z,11.20
2022-12-27T14:03:07.762Z,11.20
2022-12-27T14:04:39.587Z,11.20
2022-12-27T14:05:41.406Z,11.20
2022-12-27T14:07:02.182Z,11.30
2022-12-27T14:08:10.190Z,11.30
2022-12-27T14:09:50.576Z,11.30
2022-12-27T14:11:00.538Z,11.30
2022-12-27T14:13:00.219Z,11.30
2022-12-27T14:14:03.999Z,11.30
2022-12-27T14:15:12.891Z,11.30
2022-12-27T14:16:41.676Z,11.40
2022-12-27T14:17:58.966Z,11.30
2022-12-27T14:19:16.682Z,11.20
2022-12-27T14:21:01.693Z,11.20
2022-12-27T14:22:27.899Z,11.20
2022-12-27T14:23:56.902Z,11.10
2022-12-27T14:25:39.564Z,11.10
2022-12-27T14:27:13.267Z,11.00
2022-12-27T14:28:36.242Z,11.00
2022-12-27T14:30:05.331Z,11.00
2022-12-27T14:31:31.935Z,11.00
2022-12-27T14:32:54.372Z,11.00
2022-12-27T14:34:39.900Z,11.00
2022-12-27T14:35:59.889Z,11.00
2022-12-27T14:37:33.416Z,11.10
2022-12-27T14:38:55.731Z,11.10
2022-12-27T14:40:13.268Z,11.10
2022-12-27T14:41:59.812Z,11.30
2022-12-27T14:43:22.947Z,11.10
2022-12-27T14:45:01.757Z,11.10
2022-12-27T14:46:36.128Z,11.00
2022-12-27T14:47:40.852Z,11.00
2022-12-27T14:49:09.893Z,11.00
2022-12-27T14:50:54.994Z,11.00
2022-12-27T14:52:16.172Z,10.90
2022-12-27T14:53:36.326Z,10.80
2022-12-27T14:54:56.511Z,10.80
2022-12-27T14:56:17.253Z,10.80
2022-12-27T14:57:42.776Z,10.70
2022-12-27T14:59:09.796Z,10.70
2022-12-27T15:00:19.965Z,10.70
2022-12-27T15:02:02.209Z,10.70
2022-12-27T15:03:09.781Z,10.70
2022-12-27T15:04:14.530Z,10.70
2022-12-27T15:05:42.496Z,10.60
2022-12-27T15:07:10.082Z,10.60
2022-12-27T15:08:48.707Z,10.50
2022-12-27T15:10:44.353Z,10.60
2022-12-27T15:11:57.871Z,10.50
2022-12-27T15:13:50.643Z,10.50
2022-12-27T15:15:10.642Z,10.50
2022-12-27T15:16:21.318Z,10.40
2022-12-27T15:17:34.691Z,10.40
2022-12-27T15:19:02.451Z,10.40
2022-12-27T15:20:22.845Z,10.40
2022-12-27T15:21:59.555Z,10.40
2022-12-27T15:23:08.205Z,10.30
2022-12-27T15:24:34.783Z,10.30
2022-12-27T15:26:03.124Z,10.30
2022-12-27T15:46:11.306Z,10.00
2022-12-27T15:47:50.956Z,10.00
2022-12-27T15:49:24.761Z,10.00
2022-12-27T15:50:48.420Z,9.90
2022-12-27T15:52:13.034Z,9.90
2022-12-27T15:53:52.372Z,9.90
2022-12-27T15:55:19.321Z,9.90
2022-12-27T15:56:44.325Z,9.90
2022-12-27T15:58:05.923Z,9.90
2022-12-27T15:59:48.244Z,9.90
2022-12-27T16:01:25.279Z,9.90
2022-12-27T16:02:33.783Z,9.90
2022-12-27T16:03:39.683Z,9.90
2022-12-27T16:04:56.884Z,9.90
2022-12-27T16:06:00.687Z,9.90
2022-12-27T16:07:04.441Z,9.90
2022-12-27T16:08:09.309Z,9.90
2022-12-27T16:09:29.301Z,9.90
2022-12-27T16:10:35.433Z,10.00
2022-12-27T16:12:03.810Z,10.00